sensor_id;sensor_type;location;lat;lon;timestamp;temperature;humidity
7174;DHT22;3628;48.654;8.932;2024-03-02T00:02:13;5.00;99.90
7174;DHT22;3628;48.654;8.932;2024-03-02T00:04:39;5.00;99.90
7174;DHT22;3628;48.654;8.932;2024-03-02T00:07:06;5.00;99.90
7174;DHT22;3628;48.654;8.932;2024-03-02T00:09:32;5.00;99.90
7174;DHT22;3628;48.654;8.932;2024-03-02T00:12:00;5.00;99.90
7174;DHT22;3628;48.654;8.932;2024-03-02T00:14:29;5.00;99.90
7174;DHT22;3628;48.654;8.932;2024-03-02T00:16:55;5.00;99.90
7174;DHT22;3628;48.654;8.932;2024-03-02T00:19:21;5.00;99.90
7174;DHT22;3628;48.654;8.932;2024-03-02T00:21:47;5.00;99.90
7174;DHT22;3628;48.654;8.932;2024-03-02T00:24:34;5.00;99.90
7174;DHT22;3628;48.654;8.932;2024-03-02T00:27:00;5.10;99.90
7174;DHT22;3628;48.654;8.932;2024-03-02T00:29:28;5.10;99.90
7174;DHT22;3628;48.654;8.932;2024-03-02T00:31:54;5.10;99.90
7174;DHT22;3628;48.654;8.932;2024-03-02T00:34:21;5.10;99.90
7174;DHT22;3628;48.654;8.932;2024-03-02T00:36:47;5.10;99.90
7174;DHT22;3628;48.654;8.932;2024-03-02T00:39:15;5.10;99.90
7174;DHT22;3628;48.654;8.932;2024-03-02T00:41:42;5.10;99.90
7174;DHT22;3628;48.654;8.932;2024-03-02T00:44:10;5.10;99.90
7174;DHT22;3628;48.654;8.932;2024-03-02T00:46:38;5.10;99.90
7174;DHT22;3628;48.654;8.932;2024-03-02T00:49:24;5.10;99.90
7174;DHT22;3628;48.654;8.932;2024-03-02T00:51:52;5.20;99.90
7174;DHT22;3628;48.654;8.932;2024-03-02T00:54:23;5.10;99.90
7174;DHT22;3628;48.654;8.932;2024-03-02T00:56:54;5.10;99.90
7174;DHT22;3628;48.654;8.932;2024-03-02T00:59:22;5.10;99.90
7174;DHT22;3628;48.654;8.932;2024-03-02T01:01:49;5.10;99.90
7174;DHT22;3628;48.654;8.932;2024-03-02T01:04:15;5.10;99.90
7174;DHT22;3628;48.654;8.932;2024-03-02T01:06:42;5.20;99.90
7174;DHT22;3628;48.654;8.932;2024-03-02T01:09:07;5.20;99.90
7174;DHT22;3628;48.654;8.932;2024-03-02T01:11:33;5.20;99.90
7174;DHT22;3628;48.654;8.932;2024-03-02T01:13:58;5.20;99.90
7174;DHT22;3628;48.654;8.932;2024-03-02T01:16:24;5.30;99.90
7174;DHT22;3628;48.654;8.932;2024-03-02T01:18:50;5.30;99.90
7174;DHT22;3628;48.654;8.932;2024-03-02T01:21:15;5.30;99.90
7174;DHT22;3628;48.654;8.932;2024-03-02T01:23:41;5.30;99.90
7174;DHT22;3628;48.654;8.932;2024-03-02T01:26:07;5.30;99.90
7174;DHT22;3628;48.654;8.932;2024-03-02T01:28:32;5.30;99.90
7174;DHT22;3628;48.654;8.932;2024-03-02T01:30:58;5.30;99.90
7174;DHT22;3628;48.654;8.932;2024-03-02T01:33:24;5.30;99.90
7174;DHT22;3628;48.654;8.932;2024-03-02T01:35:49;5.20;99.90
7174;DHT22;3628;48.654;8.932;2024-03-02T01:38:15;5.10;99.90
7174;DHT22;3628;48.654;8.932;2024-03-02T01:40:42;5.10;99.90
7174;DHT22;3628;48.654;8.932;2024-03-02T01:43:09;5.10;99.90
7174;DHT22;3628;48.654;8.932;2024-03-02T01:45:35;5.10;99.90
7174;DHT22;3628;48.654;8.932;2024-03-02T01:48:06;5.10;99.90
7174;DHT22;3628;48.654;8.932;2024-03-02T01:50:32;5.00;99.90
7174;DHT22;3628;48.654;8.932;2024-03-02T01:52:59;5.10;99.90
7174;DHT22;3628;48.654;8.932;2024-03-02T01:55:25;5.00;99.90
7174;DHT22;3628;48.654;8.932;2024-03-02T01:57:51;5.00;99.90
7174;DHT22;3628;48.654;8.932;2024-03-02T02:00:19;5.00;99.90
7174;DHT22;3628;48.654;8.932;2024-03-02T02:02:45;5.00;99.90
7174;DHT22;3628;48.654;8.932;2024-03-02T02:05:11;4.90;99.90
7174;DHT22;3628;48.654;8.932;2024-03-02T02:07:37;4.90;99.90
7174;DHT22;3628;48.654;8.932;2024-03-02T02:10:03;4.90;99.90
7174;DHT22;3628;48.654;8.932;2024-03-02T02:12:29;4.80;99.90
7174;DHT22;3628;48.654;8.932;2024-03-02T02:14:54;4.70;99.90
7174;DHT22;3628;48.654;8.932;2024-03-02T02:17:20;4.70;99.90
7174;DHT22;3628;48.654;8.932;2024-03-02T02:19:46;4.70;99.90
7174;DHT22;3628;48.654;8.932;2024-03-02T02:22:11;4.60;99.90
7174;DHT22;3628;48.654;8.932;2024-03-02T02:24:41;4.60;99.90
7174;DHT22;3628;48.654;8.932;2024-03-02T02:27:09;4.50;99.90
7174;DHT22;3628;48.654;8.932;2024-03-02T02:29:36;4.50;99.90
7174;DHT22;3628;48.654;8.932;2024-03-02T02:32:02;4.50;99.90
7174;DHT22;3628;48.654;8.932;2024-03-02T02:34:28;4.50;99.90
7174;DHT22;3628;48.654;8.932;2024-03-02T02:36:53;4.40;99.90
7174;DHT22;3628;48.654;8.932;2024-03-02T02:39:21;4.40;99.90
7174;DHT22;3628;48.654;8.932;2024-03-02T02:41:47;4.40;99.90
7174;DHT22;3628;48.654;8.932;2024-03-02T02:44:13;4.30;99.90
7174;DHT22;3628;48.654;8.932;2024-03-02T02:46:40;4.20;99.90
7174;DHT22;3628;48.654;8.932;2024-03-02T02:49:06;4.20;99.90
7174;DHT22;3628;48.654;8.932;2024-03-02T02:51:31;4.10;99.90
7174;DHT22;3628;48.654;8.932;2024-03-02T02:53:57;4.00;99.90
7174;DHT22;3628;48.654;8.932;2024-03-02T02:56:22;3.90;99.90
7174;DHT22;3628;48.654;8.932;2024-03-02T02:58:48;3.90;99.90
7174;DHT22;3628;48.654;8.932;2024-03-02T03:01:16;3.90;99.90
7174;DHT22;3628;48.654;8.932;2024-03-02T03:03:46;3.90;99.90
7174;DHT22;3628;48.654;8.932;2024-03-02T03:06:12;3.90;99.90
7174;DHT22;3628;48.654;8.932;2024-03-02T03:08:38;3.80;99.90
7174;DHT22;3628;48.654;8.932;2024-03-02T03:11:04;3.70;99.90
7174;DHT22;3628;48.654;8.932;2024-03-02T03:13:34;3.70;99.90
7174;DHT22;3628;48.654;8.932;2024-03-02T03:15:59;3.60;99.90
7174;DHT22;3628;48.654;8.932;2024-03-02T03:18:25;3.60;99.90
7174;DHT22;3628;48.654;8.932;2024-03-02T03:20:50;3.50;99.90
7174;DHT22;3628;48.654;8.932;2024-03-02T03:23:16;3.50;99.90
7174;DHT22;3628;48.654;8.932;2024-03-02T03:25:43;3.40;99.90
7174;DHT22;3628;48.654;8.932;2024-03-02T03:28:09;3.40;99.90
7174;DHT22;3628;48.654;8.932;2024-03-02T03:30:38;3.40;99.90
7174;DHT22;3628;48.654;8.932;2024-03-02T03:33:04;3.40;99.90
7174;DHT22;3628;48.654;8.932;2024-03-02T03:35:31;3.30;99.90
7174;DHT22;3628;48.654;8.932;2024-03-02T03:37:57;3.30;99.90
7174;DHT22;3628;48.654;8.932;2024-03-02T03:40:22;3.30;99.90
7174;DHT22;3628;48.654;8.932;2024-03-02T03:42:48;3.30;99.90
7174;DHT22;3628;48.654;8.932;2024-03-02T03:45:15;3.30;99.90
7174;DHT22;3628;48.654;8.932;2024-03-02T03:47:41;3.30;99.90
7174;DHT22;3628;48.654;8.932;2024-03-02T03:50:07;3.30;99.90
7174;DHT22;3628;48.654;8.932;2024-03-02T03:52:33;3.20;99.90
7174;DHT22;3628;48.654;8.932;2024-03-02T03:54:59;3.30;99.90
7174;DHT22;3628;48.654;8.932;2024-03-02T03:57:24;3.30;99.90
7174;DHT22;3628;48.654;8.932;2024-03-02T03:59:50;3.20;99.90
7174;DHT22;3628;48.654;8.932;2024-03-02T04:02:16;3.20;99.90
7174;DHT22;3628;48.654;8.932;2024-03-02T04:04:41;3.20;99.90
7174;DHT22;3628;48.654;8.932;2024-03-02T04:07:07;3.10;99.90
7174;DHT22;3628;48.654;8.932;2024-03-02T04:09:32;3.20;99.90
7174;DHT22;3628;48.654;8.932;2024-03-02T04:11:58;3.10;99.90
7174;DHT22;3628;48.654;8.932;2024-03-02T04:14:23;3.10;99.90
7174;DHT22;3628;48.654;8.932;2024-03-02T04:16:49;3.10;99.90
7174;DHT22;3628;48.654;8.932;2024-03-02T04:19:14;3.10;99.90
7174;DHT22;3628;48.654;8.932;2024-03-02T04:21:40;3.10;99.90
7174;DHT22;3628;48.654;8.932;2024-03-02T04:24:06;3.10;99.90
7174;DHT22;3628;48.654;8.932;2024-03-02T04:26:31;3.10;99.90
7174;DHT22;3628;48.654;8.932;2024-03-02T04:28:57;3.10;99.90
7174;DHT22;3628;48.654;8.932;2024-03-02T04:31:22;3.10;99.90
7174;DHT22;3628;48.654;8.932;2024-03-02T04:33:48;3.10;99.90
7174;DHT22;3628;48.654;8.932;2024-03-02T04:36:13;3.00;99.90
7174;DHT22;3628;48.654;8.932;2024-03-02T04:38:39;3.00;99.90
7174;DHT22;3628;48.654;8.932;2024-03-02T04:41:05;3.00;99.90
7174;DHT22;3628;48.654;8.932;2024-03-02T04:43:34;2.90;99.90
7174;DHT22;3628;48.654;8.932;2024-03-02T04:46:00;2.90;99.90
7174;DHT22;3628;48.654;8.932;2024-03-02T04:48:26;2.90;99.90
7174;DHT22;3628;48.654;8.932;2024-03-02T04:50:52;2.90;99.90
7174;DHT22;3628;48.654;8.932;2024-03-02T04:53:17;2.90;99.90
7174;DHT22;3628;48.654;8.932;2024-03-02T04:55:43;2.90;99.90
7174;DHT22;3628;48.654;8.932;2024-03-02T04:58:09;2.90;99.90
7174;DHT22;3628;48.654;8.932;2024-03-02T05:00:35;2.90;99.90
7174;DHT22;3628;48.654;8.932;2024-03-02T05:03:01;2.90;99.90
7174;DHT22;3628;48.654;8.932;2024-03-02T05:05:27;2.90;99.90
7174;DHT22;3628;48.654;8.932;2024-03-02T05:07:52;2.90;99.90
7174;DHT22;3628;48.654;8.932;2024-03-02T05:10:18;2.90;99.90
7174;DHT22;3628;48.654;8.932;2024-03-02T05:12:44;2.90;99.90
7174;DHT22;3628;48.654;8.932;2024-03-02T05:15:15;2.90;99.90
7174;DHT22;3628;48.654;8.932;2024-03-02T05:17:42;2.90;99.90
7174;DHT22;3628;48.654;8.932;2024-03-02T05:20:11;2.90;99.90
7174;DHT22;3628;48.654;8.932;2024-03-02T05:22:37;2.80;99.90
7174;DHT22;3628;48.654;8.932;2024-03-02T05:25:03;2.80;99.90
7174;DHT22;3628;48.654;8.932;2024-03-02T05:27:29;2.80;99.90
7174;DHT22;3628;48.654;8.932;2024-03-02T05:29:55;2.80;99.90
7174;DHT22;3628;48.654;8.932;2024-03-02T05:32:21;2.80;99.90
7174;DHT22;3628;48.654;8.932;2024-03-02T05:34:47;2.80;99.90
7174;DHT22;3628;48.654;8.932;2024-03-02T05:37:12;2.80;99.90
7174;DHT22;3628;48.654;8.932;2024-03-02T05:39:38;2.80;99.90
7174;DHT22;3628;48.654;8.932;2024-03-02T05:42:04;2.70;99.90
7174;DHT22;3628;48.654;8.932;2024-03-02T05:44:29;2.70;99.90
7174;DHT22;3628;48.654;8.932;2024-03-02T05:46:55;2.70;99.90
7174;DHT22;3628;48.654;8.932;2024-03-02T05:49:21;2.70;99.90
7174;DHT22;3628;48.654;8.932;2024-03-02T05:51:47;2.70;99.90
7174;DHT22;3628;48.654;8.932;2024-03-02T05:54:12;2.70;99.90
7174;DHT22;3628;48.654;8.932;2024-03-02T05:56:38;2.70;99.90
7174;DHT22;3628;48.654;8.932;2024-03-02T05:59:04;2.70;99.90
7174;DHT22;3628;48.654;8.932;2024-03-02T06:01:48;2.80;99.90
7174;DHT22;3628;48.654;8.932;2024-03-02T06:04:16;2.70;99.90
7174;DHT22;3628;48.654;8.932;2024-03-02T06:06:42;2.70;99.90
7174;DHT22;3628;48.654;8.932;2024-03-02T06:09:08;2.80;99.90
7174;DHT22;3628;48.654;8.932;2024-03-02T06:11:35;2.80;99.90
7174;DHT22;3628;48.654;8.932;2024-03-02T06:14:01;2.80;99.90
7174;DHT22;3628;48.654;8.932;2024-03-02T06:16:27;2.80;99.90
7174;DHT22;3628;48.654;8.932;2024-03-02T06:18:52;2.80;99.90
7174;DHT22;3628;48.654;8.932;2024-03-02T06:21:19;2.80;99.90
7174;DHT22;3628;48.654;8.932;2024-03-02T06:23:45;2.80;99.90
7174;DHT22;3628;48.654;8.932;2024-03-02T06:26:11;2.90;99.90
7174;DHT22;3628;48.654;8.932;2024-03-02T06:28:36;2.90;99.90
7174;DHT22;3628;48.654;8.932;2024-03-02T06:31:02;2.90;99.90
7174;DHT22;3628;48.654;8.932;2024-03-02T06:33:28;2.90;99.90
7174;DHT22;3628;48.654;8.932;2024-03-02T06:35:54;2.90;99.90
7174;DHT22;3628;48.654;8.932;2024-03-02T06:38:19;3.00;99.90
7174;DHT22;3628;48.654;8.932;2024-03-02T06:40:45;3.00;99.90
7174;DHT22;3628;48.654;8.932;2024-03-02T06:43:10;3.10;99.90
7174;DHT22;3628;48.654;8.932;2024-03-02T06:45:36;3.10;99.90
7174;DHT22;3628;48.654;8.932;2024-03-02T06:48:02;3.10;99.90
7174;DHT22;3628;48.654;8.932;2024-03-02T06:50:27;3.20;99.90
7174;DHT22;3628;48.654;8.932;2024-03-02T06:52:54;3.20;99.90
7174;DHT22;3628;48.654;8.932;2024-03-02T06:55:21;3.30;99.90
7174;DHT22;3628;48.654;8.932;2024-03-02T06:57:47;3.30;99.90
7174;DHT22;3628;48.654;8.932;2024-03-02T07:00:13;3.40;99.90
7174;DHT22;3628;48.654;8.932;2024-03-02T07:02:39;3.50;99.90
7174;DHT22;3628;48.654;8.932;2024-03-02T07:05:07;3.60;99.90
7174;DHT22;3628;48.654;8.932;2024-03-02T07:07:33;3.70;99.90
7174;DHT22;3628;48.654;8.932;2024-03-02T07:10:00;3.80;99.90
7174;DHT22;3628;48.654;8.932;2024-03-02T07:12:26;3.90;99.90
7174;DHT22;3628;48.654;8.932;2024-03-02T07:14:52;3.90;99.90
7174;DHT22;3628;48.654;8.932;2024-03-02T07:17:36;4.00;99.90
7174;DHT22;3628;48.654;8.932;2024-03-02T07:20:02;4.00;99.90
7174;DHT22;3628;48.654;8.932;2024-03-02T07:22:29;4.00;99.90
7174;DHT22;3628;48.654;8.932;2024-03-02T07:24:55;4.00;99.90
7174;DHT22;3628;48.654;8.932;2024-03-02T07:27:21;4.00;99.90
7174;DHT22;3628;48.654;8.932;2024-03-02T07:29:46;4.00;99.90
7174;DHT22;3628;48.654;8.932;2024-03-02T07:32:12;4.00;99.90
7174;DHT22;3628;48.654;8.932;2024-03-02T07:34:38;4.00;99.90
7174;DHT22;3628;48.654;8.932;2024-03-02T07:37:04;4.00;99.90
7174;DHT22;3628;48.654;8.932;2024-03-02T07:39:29;4.10;99.90
7174;DHT22;3628;48.654;8.932;2024-03-02T07:41:55;4.10;99.90
7174;DHT22;3628;48.654;8.932;2024-03-02T07:44:21;4.10;99.90
7174;DHT22;3628;48.654;8.932;2024-03-02T07:46:48;4.20;99.90
7174;DHT22;3628;48.654;8.932;2024-03-02T07:49:20;4.30;99.90
7174;DHT22;3628;48.654;8.932;2024-03-02T07:51:45;4.40;99.90
7174;DHT22;3628;48.654;8.932;2024-03-02T07:54:11;4.40;99.90
7174;DHT22;3628;48.654;8.932;2024-03-02T07:56:36;4.60;99.90
7174;DHT22;3628;48.654;8.932;2024-03-02T07:59:03;4.70;99.90
7174;DHT22;3628;48.654;8.932;2024-03-02T08:01:29;4.90;99.90
7174;DHT22;3628;48.654;8.932;2024-03-02T08:04:00;5.00;99.90
7174;DHT22;3628;48.654;8.932;2024-03-02T08:06:29;5.20;99.90
7174;DHT22;3628;48.654;8.932;2024-03-02T08:08:59;5.40;99.90
7174;DHT22;3628;48.654;8.932;2024-03-02T08:11:25;5.60;99.90
7174;DHT22;3628;48.654;8.932;2024-03-02T08:13:50;5.80;99.90
7174;DHT22;3628;48.654;8.932;2024-03-02T08:16:18;6.00;99.90
7174;DHT22;3628;48.654;8.932;2024-03-02T08:18:46;6.30;99.90
7174;DHT22;3628;48.654;8.932;2024-03-02T08:21:12;6.50;99.90
7174;DHT22;3628;48.654;8.932;2024-03-02T08:23:38;6.70;99.90
7174;DHT22;3628;48.654;8.932;2024-03-02T08:26:06;6.90;99.90
7174;DHT22;3628;48.654;8.932;2024-03-02T08:28:32;7.10;99.90
7174;DHT22;3628;48.654;8.932;2024-03-02T08:30:58;7.30;99.90
7174;DHT22;3628;48.654;8.932;2024-03-02T08:33:23;7.40;99.90
7174;DHT22;3628;48.654;8.932;2024-03-02T08:35:49;7.60;99.90
7174;DHT22;3628;48.654;8.932;2024-03-02T08:38:15;7.80;99.90
7174;DHT22;3628;48.654;8.932;2024-03-02T08:40:40;8.00;99.90
7174;DHT22;3628;48.654;8.932;2024-03-02T08:43:06;8.10;99.90
7174;DHT22;3628;48.654;8.932;2024-03-02T08:45:32;8.30;99.90
7174;DHT22;3628;48.654;8.932;2024-03-02T08:47:59;8.40;99.90
7174;DHT22;3628;48.654;8.932;2024-03-02T08:50:25;8.70;99.90
7174;DHT22;3628;48.654;8.932;2024-03-02T08:52:50;8.80;99.90
7174;DHT22;3628;48.654;8.932;2024-03-02T08:55:16;9.00;99.90
7174;DHT22;3628;48.654;8.932;2024-03-02T08:57:41;9.10;99.90
7174;DHT22;3628;48.654;8.932;2024-03-02T09:00:07;9.30;99.90
7174;DHT22;3628;48.654;8.932;2024-03-02T09:02:34;9.50;99.90
7174;DHT22;3628;48.654;8.932;2024-03-02T09:04:59;9.70;99.90
7174;DHT22;3628;48.654;8.932;2024-03-02T09:07:25;9.90;99.90
7174;DHT22;3628;48.654;8.932;2024-03-02T09:09:51;10.20;99.90
7174;DHT22;3628;48.654;8.932;2024-03-02T09:12:18;10.50;99.90
7174;DHT22;3628;48.654;8.932;2024-03-02T09:14:44;10.70;99.90
7174;DHT22;3628;48.654;8.932;2024-03-02T09:17:10;11.10;99.90
7174;DHT22;3628;48.654;8.932;2024-03-02T09:19:37;11.30;99.90
7174;DHT22;3628;48.654;8.932;2024-03-02T09:22:03;11.60;99.90
7174;DHT22;3628;48.654;8.932;2024-03-02T09:24:31;11.90;99.90
7174;DHT22;3628;48.654;8.932;2024-03-02T09:26:56;12.20;99.90
7174;DHT22;3628;48.654;8.932;2024-03-02T09:29:22;12.30;99.90
7174;DHT22;3628;48.654;8.932;2024-03-02T09:31:48;12.50;99.90
7174;DHT22;3628;48.654;8.932;2024-03-02T09:34:14;12.80;99.90
7174;DHT22;3628;48.654;8.932;2024-03-02T09:36:41;12.90;99.90
7174;DHT22;3628;48.654;8.932;2024-03-02T09:39:08;13.00;99.90
7174;DHT22;3628;48.654;8.932;2024-03-02T09:41:35;13.10;99.90
7174;DHT22;3628;48.654;8.932;2024-03-02T09:44:02;13.40;99.90
7174;DHT22;3628;48.654;8.932;2024-03-02T09:46:27;13.50;99.90
7174;DHT22;3628;48.654;8.932;2024-03-02T09:48:53;13.70;99.90
7174;DHT22;3628;48.654;8.932;2024-03-02T09:51:19;13.80;99.90
7174;DHT22;3628;48.654;8.932;2024-03-02T09:53:45;13.90;99.90
7174;DHT22;3628;48.654;8.932;2024-03-02T09:56:12;13.90;99.90
7174;DHT22;3628;48.654;8.932;2024-03-02T09:58:39;13.90;99.90
7174;DHT22;3628;48.654;8.932;2024-03-02T10:01:08;14.10;99.90
7174;DHT22;3628;48.654;8.932;2024-03-02T10:03:36;14.20;99.30
7174;DHT22;3628;48.654;8.932;2024-03-02T10:08:47;14.00;98.30
7174;DHT22;3628;48.654;8.932;2024-03-02T10:11:34;14.10;98.30
7174;DHT22;3628;48.654;8.932;2024-03-02T10:14:13;14.00;98.10
7174;DHT22;3628;48.654;8.932;2024-03-02T10:16:44;14.00;99.20
7174;DHT22;3628;48.654;8.932;2024-03-02T10:19:23;14.10;99.00
7174;DHT22;3628;48.654;8.932;2024-03-02T10:21:50;14.20;98.10
7174;DHT22;3628;48.654;8.932;2024-03-02T10:24:17;14.30;97.80
7174;DHT22;3628;48.654;8.932;2024-03-02T10:26:43;14.30;97.50
7174;DHT22;3628;48.654;8.932;2024-03-02T10:29:10;14.40;97.50
7174;DHT22;3628;48.654;8.932;2024-03-02T10:31:37;14.50;96.30
7174;DHT22;3628;48.654;8.932;2024-03-02T10:34:03;14.50;96.70
7174;DHT22;3628;48.654;8.932;2024-03-02T10:36:29;14.80;97.00
7174;DHT22;3628;48.654;8.932;2024-03-02T10:38:58;14.90;96.90
7174;DHT22;3628;48.654;8.932;2024-03-02T10:41:26;15.20;96.10
7174;DHT22;3628;48.654;8.932;2024-03-02T10:43:56;15.40;95.30
7174;DHT22;3628;48.654;8.932;2024-03-02T10:46:30;15.70;92.50
7174;DHT22;3628;48.654;8.932;2024-03-02T10:49:00;15.80;92.50
7174;DHT22;3628;48.654;8.932;2024-03-02T10:51:30;16.00;91.80
7174;DHT22;3628;48.654;8.932;2024-03-02T10:54:00;16.20;90.50
7174;DHT22;3628;48.654;8.932;2024-03-02T10:56:39;16.40;90.10
7174;DHT22;3628;48.654;8.932;2024-03-02T11:01:34;16.70;86.90
7174;DHT22;3628;48.654;8.932;2024-03-02T11:04:02;16.80;85.60
7174;DHT22;3628;48.654;8.932;2024-03-02T11:06:29;16.90;82.80
7174;DHT22;3628;48.654;8.932;2024-03-02T11:09:00;17.10;84.10
7174;DHT22;3628;48.654;8.932;2024-03-02T11:11:32;17.00;82.90
7174;DHT22;3628;48.654;8.932;2024-03-02T11:14:02;17.10;81.50
7174;DHT22;3628;48.654;8.932;2024-03-02T11:16:37;17.30;81.10
7174;DHT22;3628;48.654;8.932;2024-03-02T11:19:14;17.30;80.70
7174;DHT22;3628;48.654;8.932;2024-03-02T11:21:41;17.50;78.90
7174;DHT22;3628;48.654;8.932;2024-03-02T11:26:50;17.70;77.90
7174;DHT22;3628;48.654;8.932;2024-03-02T11:32:01;17.60;75.60
7174;DHT22;3628;48.654;8.932;2024-03-02T11:34:31;17.50;76.20
7174;DHT22;3628;48.654;8.932;2024-03-02T11:36:58;17.50;75.70
7174;DHT22;3628;48.654;8.932;2024-03-02T11:39:28;17.50;75.90
7174;DHT22;3628;48.654;8.932;2024-03-02T11:41:57;17.60;76.00
7174;DHT22;3628;48.654;8.932;2024-03-02T11:44:25;17.70;76.40
7174;DHT22;3628;48.654;8.932;2024-03-02T11:47:02;17.80;76.20
7174;DHT22;3628;48.654;8.932;2024-03-02T11:49:40;17.90;76.00
7174;DHT22;3628;48.654;8.932;2024-03-02T11:52:08;18.00;75.50
7174;DHT22;3628;48.654;8.932;2024-03-02T11:54:36;18.00;75.30
7174;DHT22;3628;48.654;8.932;2024-03-02T11:57:02;18.00;76.10
7174;DHT22;3628;48.654;8.932;2024-03-02T11:59:31;17.90;75.50
7174;DHT22;3628;48.654;8.932;2024-03-02T12:01:58;18.20;77.10
7174;DHT22;3628;48.654;8.932;2024-03-02T12:04:24;18.40;74.20
7174;DHT22;3628;48.654;8.932;2024-03-02T12:07:01;18.50;72.70
7174;DHT22;3628;48.654;8.932;2024-03-02T12:09:27;18.60;71.90
7174;DHT22;3628;48.654;8.932;2024-03-02T12:12:08;18.60;71.40
7174;DHT22;3628;48.654;8.932;2024-03-02T12:14:38;18.70;71.90
7174;DHT22;3628;48.654;8.932;2024-03-02T12:17:05;18.90;71.40
7174;DHT22;3628;48.654;8.932;2024-03-02T12:19:31;19.00;70.10
7174;DHT22;3628;48.654;8.932;2024-03-02T12:21:57;19.10;70.40
7174;DHT22;3628;48.654;8.932;2024-03-02T12:24:27;19.20;69.30
7174;DHT22;3628;48.654;8.932;2024-03-02T12:26:53;19.30;68.90
7174;DHT22;3628;48.654;8.932;2024-03-02T12:29:20;19.30;67.90
7174;DHT22;3628;48.654;8.932;2024-03-02T12:31:48;19.20;67.10
7174;DHT22;3628;48.654;8.932;2024-03-02T12:34:15;19.10;67.80
7174;DHT22;3628;48.654;8.932;2024-03-02T12:36:41;18.90;66.60
7174;DHT22;3628;48.654;8.932;2024-03-02T12:39:08;18.80;66.40
7174;DHT22;3628;48.654;8.932;2024-03-02T12:41:37;18.60;65.60
7174;DHT22;3628;48.654;8.932;2024-03-02T12:44:06;18.30;66.10
7174;DHT22;3628;48.654;8.932;2024-03-02T12:46:32;18.20;66.60
7174;DHT22;3628;48.654;8.932;2024-03-02T12:49:07;18.10;67.20
7174;DHT22;3628;48.654;8.932;2024-03-02T12:51:35;18.20;67.70
7174;DHT22;3628;48.654;8.932;2024-03-02T12:54:01;18.30;67.10
7174;DHT22;3628;48.654;8.932;2024-03-02T12:56:27;18.20;64.90
7174;DHT22;3628;48.654;8.932;2024-03-02T12:58:56;18.20;66.60
7174;DHT22;3628;48.654;8.932;2024-03-02T13:01:22;18.00;64.20
7174;DHT22;3628;48.654;8.932;2024-03-02T13:03:52;18.00;67.00
7174;DHT22;3628;48.654;8.932;2024-03-02T13:06:18;18.00;66.20
7174;DHT22;3628;48.654;8.932;2024-03-02T13:08:45;17.80;66.00
7174;DHT22;3628;48.654;8.932;2024-03-02T13:11:11;17.80;68.60
7174;DHT22;3628;48.654;8.932;2024-03-02T13:13:37;17.70;67.70
7174;DHT22;3628;48.654;8.932;2024-03-02T13:16:07;17.50;67.20
7174;DHT22;3628;48.654;8.932;2024-03-02T13:18:33;17.10;67.00
7174;DHT22;3628;48.654;8.932;2024-03-02T13:20:59;16.70;68.00
7174;DHT22;3628;48.654;8.932;2024-03-02T13:23:25;16.40;69.00
7174;DHT22;3628;48.654;8.932;2024-03-02T13:25:50;16.20;71.00
7174;DHT22;3628;48.654;8.932;2024-03-02T13:28:16;16.00;71.40
7174;DHT22;3628;48.654;8.932;2024-03-02T13:30:42;15.80;71.60
7174;DHT22;3628;48.654;8.932;2024-03-02T13:33:07;15.70;72.80
7174;DHT22;3628;48.654;8.932;2024-03-02T13:35:33;15.60;73.70
7174;DHT22;3628;48.654;8.932;2024-03-02T13:37:58;15.60;75.30
7174;DHT22;3628;48.654;8.932;2024-03-02T13:40:24;15.50;76.50
7174;DHT22;3628;48.654;8.932;2024-03-02T13:42:50;15.40;75.70
7174;DHT22;3628;48.654;8.932;2024-03-02T13:45:17;15.40;76.50
7174;DHT22;3628;48.654;8.932;2024-03-02T13:47:44;15.30;77.70
7174;DHT22;3628;48.654;8.932;2024-03-02T13:50:09;15.20;78.50
7174;DHT22;3628;48.654;8.932;2024-03-02T13:52:35;15.30;78.20
7174;DHT22;3628;48.654;8.932;2024-03-02T13:55:00;15.50;78.40
7174;DHT22;3628;48.654;8.932;2024-03-02T13:57:26;15.50;76.70
7174;DHT22;3628;48.654;8.932;2024-03-02T13:59:52;15.60;76.90
7174;DHT22;3628;48.654;8.932;2024-03-02T14:02:17;15.80;75.50
7174;DHT22;3628;48.654;8.932;2024-03-02T14:04:43;16.00;76.50
7174;DHT22;3628;48.654;8.932;2024-03-02T14:07:09;16.20;75.70
7174;DHT22;3628;48.654;8.932;2024-03-02T14:09:37;16.30;74.40
7174;DHT22;3628;48.654;8.932;2024-03-02T14:12:03;16.60;75.00
7174;DHT22;3628;48.654;8.932;2024-03-02T14:14:29;16.70;73.00
7174;DHT22;3628;48.654;8.932;2024-03-02T14:16:55;16.80;73.00
7174;DHT22;3628;48.654;8.932;2024-03-02T14:19:29;16.70;72.40
7174;DHT22;3628;48.654;8.932;2024-03-02T14:21:55;16.70;70.00
7174;DHT22;3628;48.654;8.932;2024-03-02T14:24:21;16.80;70.40
7174;DHT22;3628;48.654;8.932;2024-03-02T14:26:54;16.90;70.90
7174;DHT22;3628;48.654;8.932;2024-03-02T14:29:19;16.90;72.20
7174;DHT22;3628;48.654;8.932;2024-03-02T14:31:45;17.10;72.20
7174;DHT22;3628;48.654;8.932;2024-03-02T14:34:14;17.20;71.60
7174;DHT22;3628;48.654;8.932;2024-03-02T14:36:40;17.30;71.40
7174;DHT22;3628;48.654;8.932;2024-03-02T14:39:06;17.50;71.60
7174;DHT22;3628;48.654;8.932;2024-03-02T14:41:38;17.50;70.30
7174;DHT22;3628;48.654;8.932;2024-03-02T14:44:04;17.70;70.20
7174;DHT22;3628;48.654;8.932;2024-03-02T14:46:30;17.70;69.80
7174;DHT22;3628;48.654;8.932;2024-03-02T14:48:55;17.70;68.80
7174;DHT22;3628;48.654;8.932;2024-03-02T14:51:21;17.80;68.30
7174;DHT22;3628;48.654;8.932;2024-03-02T14:53:47;17.80;68.50
7174;DHT22;3628;48.654;8.932;2024-03-02T14:56:12;17.70;67.50
7174;DHT22;3628;48.654;8.932;2024-03-02T14:58:40;17.70;67.50
7174;DHT22;3628;48.654;8.932;2024-03-02T15:01:06;17.60;67.10
7174;DHT22;3628;48.654;8.932;2024-03-02T15:03:32;17.60;67.50
7174;DHT22;3628;48.654;8.932;2024-03-02T15:05:59;17.50;67.30
7174;DHT22;3628;48.654;8.932;2024-03-02T15:08:24;17.40;67.70
7174;DHT22;3628;48.654;8.932;2024-03-02T15:10:50;17.20;69.60
7174;DHT22;3628;48.654;8.932;2024-03-02T15:13:16;17.10;69.00
7174;DHT22;3628;48.654;8.932;2024-03-02T15:15:41;16.90;69.40
7174;DHT22;3628;48.654;8.932;2024-03-02T15:18:07;16.60;67.80
7174;DHT22;3628;48.654;8.932;2024-03-02T15:20:33;16.50;69.30
7174;DHT22;3628;48.654;8.932;2024-03-02T15:22:59;16.30;70.00
7174;DHT22;3628;48.654;8.932;2024-03-02T15:25:24;16.20;70.80
7174;DHT22;3628;48.654;8.932;2024-03-02T15:27:50;15.90;69.50
7174;DHT22;3628;48.654;8.932;2024-03-02T15:30:16;15.70;69.90
7174;DHT22;3628;48.654;8.932;2024-03-02T15:32:42;15.70;71.80
7174;DHT22;3628;48.654;8.932;2024-03-02T15:35:07;15.60;71.90
7174;DHT22;3628;48.654;8.932;2024-03-02T15:37:33;15.60;72.30
7174;DHT22;3628;48.654;8.932;2024-03-02T15:39:59;15.50;72.00
7174;DHT22;3628;48.654;8.932;2024-03-02T15:42:32;15.40;72.40
7174;DHT22;3628;48.654;8.932;2024-03-02T15:44:57;15.40;73.20
7174;DHT22;3628;48.654;8.932;2024-03-02T15:47:23;15.40;73.10
7174;DHT22;3628;48.654;8.932;2024-03-02T15:49:48;15.40;73.00
7174;DHT22;3628;48.654;8.932;2024-03-02T15:52:15;15.30;73.00
7174;DHT22;3628;48.654;8.932;2024-03-02T15:54:44;15.20;72.60
7174;DHT22;3628;48.654;8.932;2024-03-02T15:57:09;15.20;72.90
7174;DHT22;3628;48.654;8.932;2024-03-02T15:59:35;15.10;73.40
7174;DHT22;3628;48.654;8.932;2024-03-02T16:02:00;15.00;73.80
7174;DHT22;3628;48.654;8.932;2024-03-02T16:04:26;15.00;75.40
7174;DHT22;3628;48.654;8.932;2024-03-02T16:06:51;15.00;74.60
7174;DHT22;3628;48.654;8.932;2024-03-02T16:09:17;14.90;74.60
7174;DHT22;3628;48.654;8.932;2024-03-02T16:11:43;14.90;75.50
7174;DHT22;3628;48.654;8.932;2024-03-02T16:14:08;14.80;74.20
7174;DHT22;3628;48.654;8.932;2024-03-02T16:16:34;14.70;74.70
7174;DHT22;3628;48.654;8.932;2024-03-02T16:19:00;14.60;73.70